Meteo Giornale » Osservazioni meteo Svizzera » Zurigo-Kloten

ore: 10:50 - Osservazioni Meteo Zurigo-Kloten
Lat. 47° 29' N Lon. 8° 32' E Alt. 436 metri s.l.m.

molto_nuvoloso Europe/Zurich

18 °C

Molto Nuvoloso

Temp. 24 Ore

11 °C

23 °C

Sud/Sud-Ovest

7.4 Km/h

Dew point 11 °C

Umidità 63 %

Visibilità  10 Km

Il sole sorge alle ore 05:36

Il sole tramonta alle ore 21:09

Data e Ora Cielo e Fenomeni T °C DP °C Um. % Pres. hPa Vis. km Vento km/h
Oggi h: 10:50 molto_nuvoloso Molto Nuvoloso 18 11 63 1016 10 S/SO 7.4
Oggi h: 10:20 nuvoloso Nuvoloso 18 11 63 1016 10 N 5.5
Oggi h: 09:50 nuvoloso Nuvoloso 18 11 63 1016 10 N 3.7
Oggi h: 09:20 nuvoloso Nuvoloso 17 11 67 1016 10 N 3.7
Oggi h: 08:50 nuvoloso Nuvoloso 15 11 76 1016 10 N 3.7
Oggi h: 08:20 sereno Sereno 14 11 82 1016 10 N 1.8
Oggi h: 07:50 sereno Sereno 13 11 87 1016 10 N 3.7
Oggi h: 07:20 molto_nuvoloso Molto Nuvoloso 13 10 81 1015 10 N 5.5
Oggi h: 06:50 molto_nuvoloso Molto Nuvoloso 12 10 87 1015 10 N 3.7
Oggi h: 06:20 molto_nuvoloso Molto Nuvoloso 12 10 87 1015 10 N 1.8
Oggi h: 05:50 sereno Sereno 11 10 93 1015 10 N 1.8
Oggi h: 05:20 sereno Sereno 11 10 93 1015 10 N 3.7
Oggi h: 04:50 sereno Sereno 11 10 93 1015 10 N 1.8
Oggi h: 04:20 sereno Sereno 11 10 93 1015 10 N 1.8
Oggi h: 03:50 sereno Sereno 11 10 93 1014 10 N 1.8
Oggi h: 03:20 sereno Sereno 11 10 93 1014 10 N 5.5
Oggi h: 02:50 sereno Sereno 11 10 93 1014 10 N 1.8
Oggi h: 01:50 sereno Sereno 11 10 93 1015 10 N 3.7
Oggi h: 01:20 sereno Sereno 11 9 87 1015 10 N 5.5
Oggi h: 00:50 sereno Sereno 12 9 81 1015 10 N 5.5
Oggi h: 00:20 sereno Sereno 12 10 87 1015 10 N 5.5
Ieri h: 23:50 sereno Sereno 12 10 87 1015 10 N 3.7
Ieri h: 23:20 sereno Sereno 13 10 81 1014 10 N 5.5
Ieri h: 22:20 sereno Sereno 14 10 76 1014 10 N 3.7
Ieri h: 21:50 sereno Sereno 14 10 76 1014 10 NO 9.3
Ieri h: 21:20 nuvoloso Nuvoloso 16 10 67 1014 10 NO 9.3
Ieri h: 20:50 nuvoloso Nuvoloso 19 9 52 1014 10 NE 7.4
Ieri h: 20:20 nuvoloso Nuvoloso 20 9 49 1013 10 NE 13
Ieri h: 19:50 molto_nuvoloso Molto Nuvoloso 21 10 49 1013 10 NE 13
Ieri h: 19:20 molto_nuvoloso Molto Nuvoloso 21 10 49 1013 10 N/NE 13
Ieri h: 18:50 molto_nuvoloso Molto Nuvoloso 21 10 49 1013 10 N 13
Ieri h: 18:20 molto_nuvoloso Molto Nuvoloso 21 10 49 1013 10 N 16.7
Ieri h: 17:50 molto_nuvoloso Molto Nuvoloso 22 7 37 1014 10 N 5.5
Ieri h: 17:20 molto_nuvoloso Molto Nuvoloso 23 8 38 1014 10 N 5.5
Ieri h: 16:50 molto_nuvoloso Molto Nuvoloso 23 8 38 1014 10 N 5.5
Ieri h: 16:20 molto_nuvoloso Molto Nuvoloso 22 8 40 1014 10 N 9.3
Ieri h: 15:50 molto_nuvoloso Molto Nuvoloso 22 8 40 1014 10 N 5.5
Ieri h: 15:20 molto_nuvoloso Molto Nuvoloso 22 9 43 1014 10 SO 7.4
Ieri h: 14:50 molto_nuvoloso Molto Nuvoloso 21 8 43 1014 10 N 5.5
Ieri h: 14:20 molto_nuvoloso Molto Nuvoloso 22 7 37 1015 10 N 5.5
Ieri h: 13:50 molto_nuvoloso Molto Nuvoloso 21 8 43 1015 10 N 5.5
Ieri h: 13:20 molto_nuvoloso Molto Nuvoloso 21 10 49 1015 10 N 3.7
Ieri h: 12:50 molto_nuvoloso Molto Nuvoloso 21 10 49 1015 10 N 5.5
Ieri h: 12:20 molto_nuvoloso Molto Nuvoloso 20 11 56 1015 10 O/NO 7.4
Ieri h: 11:50 molto_nuvoloso Molto Nuvoloso 19 10 55 1015 10 N 3.7